Flight Track Log - Related Links

Times and Time Zones

All times are in EDT time to prevent confusion due to time zone crossing. See the UAL4457 flight status page for this flight to view local times or setup timezone preferences in your user account.

Time Position Orientation Groundspeed Altitude Reporting Facility
EDT Latitude Longitude Course Direction KTS MPH feet Rate Location/Type
Wed 03:01:14 PM 29.9786 -95.2981 35° Northeast 173 199 600  Level Houston Center
Wed 03:01:33 PM 29.9833 -95.2831 70° East 158 182 1,200 1,744 Climbing Houston Center
Wed 03:02:40 PM 30.0433 -95.2492 26° Northeast 252 290 3,100 2,484 Climbing Houston Center
Wed 03:03:41 PM 30.1167 -95.2258 15° North 267 307 6,500 2,977 Climbing Houston Center
Wed 03:04:49 PM 30.1836 -95.1756 33° Northeast 257 296 9,500 1,985 Climbing Houston Center
Wed 03:05:51 PM 30.2494 -95.1250 34° Northeast 277 319 10,800 1,258 Climbing Houston Center
Wed 03:06:00 PM 30.5315 -94.8981 35° Northeast  Level FlightAware Approximate
Wed 03:06:53 PM 30.3283 -95.0656 33° Northeast 327 376 12,100  Level Houston Center
Wed 03:07:55 PM 30.4094 -95.0033 33° Northeast 344 396 13,800 1,790 Climbing Houston Center
Wed 03:08:57 PM 30.5014 -94.9314 34° Northeast 351 404 15,800 1,790 Climbing Houston Center
Wed 03:09:59 PM 30.5842 -94.8686 33° Northeast 353 406 17,500 1,548 Climbing Houston Center
Wed 03:11:01 PM 30.6664 -94.8031 34° Northeast 358 412 19,000 1,403 Climbing Houston Center
Wed 03:12:03 PM 30.7503 -94.7392 33° Northeast 360 414 20,400 1,452 Climbing Houston Center
Wed 03:13:05 PM 30.8358 -94.6733 33° Northeast 366 421 22,000 1,724 Climbing Houston Center
Wed 03:13:30 PM 30.8842 -94.6347 34° Northeast 361 415 22,900 1,835 Climbing Fort Worth Center
Wed 03:14:30 PM 30.9706 -94.5692 33° Northeast 367 422 24,600 1,750 Climbing Fort Worth Center
Wed 03:15:30 PM 31.0586 -94.5011 34° Northeast 367 422 26,400 1,650 Climbing Fort Worth Center
Wed 03:16:30 PM 31.1306 -94.4456 33° Northeast 358 412 27,900 1,650 Climbing Fort Worth Center
Wed 03:17:30 PM 31.2247 -94.3719 34° Northeast 358 412 29,700 1,550 Climbing Fort Worth Center
Wed 03:18:30 PM 31.3067 -94.3086 33° Northeast 358 412 31,000 1,250 Climbing Fort Worth Center
Wed 03:19:30 PM 31.3906 -94.2425 34° Northeast 363 418 32,200 1,200 Climbing Fort Worth Center
Wed 03:20:30 PM 31.4744 -94.1764 34° Northeast 363 418 33,400 900 Climbing Fort Worth Center
Wed 03:21:30 PM 31.5606 -94.1100 33° Northeast 368 423 34,000 300 Climbing Fort Worth Center
Wed 03:22:30 PM 31.6342 -94.0536 33° Northeast 368 423 34,000  Level Fort Worth Center
Wed 03:23:30 PM 31.7406 -93.9717 33° Northeast 389 448 34,000  Level Fort Worth Center
Wed 03:24:30 PM 31.8428 -93.8919 34° Northeast 418 481 34,000 100 Level Fort Worth Center
Wed 03:25:30 PM 31.9589 -93.7944 35° Northeast 456 525 34,200 700 Climbing Fort Worth Center
Wed 03:26:30 PM 32.0486 -93.7247 33° Northeast 456 525 35,400 900 Climbing Fort Worth Center
Wed 03:27:30 PM 32.1508 -93.6444 34° Northeast 439 505 36,000 300 Climbing Fort Worth Center
Wed 03:28:30 PM 32.2606 -93.5492 36° Northeast 444 511 36,000  Level Fort Worth Center
Wed 03:29:30 PM 32.3664 -93.4633 34° Northeast 444 511 36,000  Level Fort Worth Center
Wed 03:30:30 PM 32.4661 -93.3828 34° Northeast 444 511 36,000  Level Fort Worth Center
Wed 03:31:30 PM 32.5681 -93.3042 33° Northeast 433 498 36,000  Level Fort Worth Center
Wed 03:32:30 PM 32.6736 -93.2181 34° Northeast 438 504 36,000  Level Fort Worth Center
Wed 03:33:30 PM 32.7772 -93.1342 34° Northeast 444 511 36,000  Level Fort Worth Center
Wed 03:34:30 PM 32.8808 -93.0500 34° Northeast 444 511 36,000  Level Fort Worth Center
Wed 03:35:30 PM 32.9864 -92.9656 34° Northeast 449 517 36,000  Level Fort Worth Center
Wed 03:36:30 PM 33.0897 -92.8786 35° Northeast 449 517 36,000 450 Level Fort Worth Center
Wed 03:37:30 PM 33.1953 -92.7939 34° Northeast 449 517 36,900 351 Climbing Fort Worth Center
Wed 03:39:21 PM 33.3511 -92.6028 46° Northeast 420 483 37,000 35 Climbing Memphis Center
Wed 03:40:21 PM 33.4283 -92.4881 51° Northeast 435 501 37,000  Level Memphis Center
Wed 03:41:21 PM 33.5011 -92.3750 52° Northeast 452 520 37,000  Level Memphis Center
Wed 03:42:21 PM 33.5825 -92.2497 52° Northeast 457 526 37,000  Level Memphis Center
Wed 03:43:21 PM 33.6633 -92.1317 51° Northeast 452 520 37,000  Level Memphis Center
Wed 03:44:21 PM 33.7381 -92.0158 52° Northeast 452 520 37,000  Level Memphis Center
Wed 03:45:21 PM 33.8147 -91.8972 52° Northeast 457 526 37,000  Level Memphis Center
Wed 03:46:21 PM 33.8953 -91.7836 49° Northeast 451 519 37,000  Level Memphis Center
Wed 03:47:21 PM 33.9964 -91.7050 33° Northeast 438 504 37,000  Level Memphis Center
Wed 03:48:21 PM 34.1100 -91.6267 30° Northeast 443 510 37,000  Level Memphis Center
Wed 03:49:21 PM 34.2192 -91.5478 31° Northeast 451 519 37,000  Level Memphis Center
Wed 03:50:21 PM 34.3286 -91.4689 31° Northeast 452 520 37,000  Level Memphis Center
Wed 03:51:21 PM 34.4378 -91.3872 32° Northeast 452 520 37,000  Level Memphis Center
Wed 03:52:21 PM 34.5469 -91.3103 30° Northeast 452 520 37,000  Level Memphis Center
Wed 03:53:21 PM 34.6311 -91.2000 47° Northeast 438 504 37,000  Level Memphis Center
Wed 03:54:21 PM 34.6778 -91.0642 67° East 430 495 37,000  Level Memphis Center
Wed 03:55:21 PM 34.7267 -90.9206 67° East 443 510 37,000  Level Memphis Center
Wed 03:56:21 PM 34.7731 -90.7944 66° East 448 516 37,000  Level Memphis Center
Wed 03:57:21 PM 34.8233 -90.6556 66° East 448 516 37,000  Level Memphis Center
Wed 03:58:21 PM 34.8717 -90.5167 67° East 448 516 37,000  Level Memphis Center
Wed 03:59:21 PM 34.9217 -90.3772 66° East 448 516 37,000  Level Memphis Center
Wed 04:00:21 PM 34.9719 -90.2356 67° East 448 516 37,000  Level Memphis Center
Wed 04:01:22 PM 35.0278 -90.0806 66° East 448 516 37,000  Level Memphis Center
Wed 04:02:21 PM 35.0775 -89.9408 66° East 448 516 37,000  Level Memphis Center
Wed 04:03:21 PM 35.1250 -89.7961 68° East 453 521 37,000  Level Memphis Center
Wed 04:04:21 PM 35.1742 -89.6508 67° East 459 528 37,000  Level Memphis Center
Wed 04:05:21 PM 35.2214 -89.5106 68° East 449 517 37,000  Level Memphis Center
Wed 04:06:21 PM 35.2622 -89.3856 68° East 449 517 37,000  Level Memphis Center
Wed 04:07:21 PM 35.3089 -89.2453 68° East 444 511 37,000  Level Memphis Center
Wed 04:08:21 PM 35.3578 -89.1044 67° East 444 511 37,000  Level Memphis Center
Wed 04:09:21 PM 35.4042 -88.9636 68° East 439 505 37,000  Level Memphis Center
Wed 04:10:21 PM 35.4525 -88.8228 67° East 439 505 37,000  Level Memphis Center
Wed 04:11:21 PM 35.4967 -88.6792 69° East 439 505 37,000  Level Memphis Center
Wed 04:12:21 PM 35.5425 -88.5353 69° East 439 505 37,000  Level Memphis Center
Wed 04:13:21 PM 35.5903 -88.3936 67° East 439 505 37,000  Level Memphis Center
Wed 04:14:21 PM 35.6381 -88.2522 67° East 439 505 37,000  Level Memphis Center
Wed 04:15:21 PM 35.6858 -88.1156 67° East 434 499 37,000  Level Memphis Center
Wed 04:16:21 PM 35.7311 -87.9786 68° East 434 499 37,000  Level Memphis Center
Wed 04:17:21 PM 35.7994 -87.8486 57° Northeast 441 507 37,000 -400 Level Memphis Center
Wed 04:18:21 PM 35.8719 -87.7261 54° Northeast 441 507 36,200 -1,000 Descending Memphis Center
Wed 04:19:21 PM 35.9403 -87.6008 56° Northeast 441 507 35,000 -600 Descending Memphis Center
Wed 04:20:21 PM 36.0103 -87.4753 55° Northeast 441 507 35,000 -350 Level Memphis Center
Wed 04:21:21 PM 36.0864 -87.3367 56° Northeast 441 507 34,300 -950 Descending Memphis Center
Wed 04:22:21 PM 36.1581 -87.2053 56° Northeast 453 521 33,100 -1,150 Descending Memphis Center
Wed 04:23:21 PM 36.2297 -87.0764 55° Northeast 448 516 32,000 -1,000 Descending Memphis Center
Wed 04:24:21 PM 36.2856 -86.9739 56° Northeast 448 516 31,100 -1,950 Descending Memphis Center
Wed 04:25:21 PM 36.3606 -86.8292 57° Northeast 448 516 28,100 -3,000 Descending Memphis Center
Wed 04:26:21 PM 36.4361 -86.6994 54° Northeast 455 524 25,100 -2,050 Descending Memphis Center
Wed 04:27:21 PM 36.5011 -86.5775 56° Northeast 441 507 24,000 -550 Descending Memphis Center
Wed 04:28:21 PM 36.5683 -86.4531 56° Northeast 430 495 24,000  Level Memphis Center
Wed 04:29:21 PM 36.6431 -86.3150 56° Northeast 430 495 24,000  Level Memphis Center
Wed 04:30:21 PM 36.7097 -86.1925 56° Northeast 430 495 24,000  Level Memphis Center
Wed 04:31:55 PM 36.8097 -86.0028 57° Northeast 446 513 24,000  Level Indianapolis Center
Wed 04:32:57 PM 36.8789 -85.8722 56° Northeast 447 514 24,000  Level Indianapolis Center
Wed 04:33:59 PM 36.9475 -85.7417 57° Northeast 446 513 24,000  Level Indianapolis Center
Wed 04:35:01 PM 37.0294 -85.5872 56° Northeast 453 521 24,000 -774 Level Indianapolis Center
Wed 04:36:03 PM 37.1008 -85.4525 56° Northeast 446 513 22,400 -1,839 Descending Indianapolis Center
Wed 04:37:05 PM 37.1717 -85.3336 53° Northeast 431 496 20,200 -2,129 Descending Indianapolis Center
Wed 04:38:07 PM 37.2592 -85.2408 40° Northeast 415 478 18,000 -2,081 Descending Indianapolis Center
Wed 04:39:09 PM 37.3433 -85.1503 41° Northeast 402 463 15,900 -2,032 Descending Indianapolis Center
Wed 04:40:11 PM 37.4250 -85.0608 41° Northeast 390 449 13,800 -1,984 Descending Indianapolis Center
Wed 04:41:13 PM 37.5025 -84.9786 40° Northeast 373 429 11,800 -1,839 Descending Indianapolis Center
Wed 04:42:15 PM 37.5956 -84.9156 28° Northeast 335 386 10,000 -1,887 Descending Indianapolis Center
Wed 04:43:17 PM 37.6628 -84.8717 27° Northeast 287 330 7,900 -2,032 Descending Indianapolis Center
Wed 04:44:19 PM 37.7267 -84.8289 28° Northeast 267 307 5,800 -1,694 Descending Indianapolis Center
Wed 04:45:21 PM 37.7919 -84.7886 26° Northeast 262 302 4,400 -1,161 Descending Indianapolis Center
Wed 04:46:23 PM 37.8547 -84.7467 28° Northeast 260 299 3,400 -871 Descending Indianapolis Center
Wed 04:47:25 PM 37.9142 -84.7092 26° Northeast 252 290 2,600 -774 Descending Indianapolis Center

Login

Don't have an account? Register now (free) for customized features, flight alerts, and more!